createdAt,value
2023-01-29T00:00:44.912Z,9.17
2023-01-29T00:03:18.923Z,7.70
2023-01-29T00:05:49.126Z,8.13
2023-01-29T00:08:19.554Z,8.30
2023-01-29T00:10:50.052Z,8.30
2023-01-29T00:13:20.932Z,7.90
2023-01-29T00:15:57.793Z,7.70
2023-01-29T00:18:31.616Z,7.77
2023-01-29T00:21:01.921Z,8.20
2023-01-29T00:23:32.149Z,7.33
2023-01-29T00:26:03.361Z,8.83
2023-01-29T00:28:33.717Z,6.90
2023-01-29T00:31:11.490Z,7.90
2023-01-29T00:33:44.776Z,8.03
2023-01-29T00:36:17.723Z,7.87
2023-01-29T00:38:54.996Z,9.17
2023-01-29T00:41:39.485Z,9.37
2023-01-29T00:44:23.350Z,7.70
2023-01-29T00:46:53.890Z,7.77
2023-01-29T00:49:26.953Z,7.37
2023-01-29T00:52:09.779Z,8.13
2023-01-29T00:54:40.422Z,7.10
2023-01-29T00:57:10.688Z,7.40
2023-01-29T00:59:41.238Z,8.70
2023-01-29T01:02:24.198Z,8.20
2023-01-29T01:04:57.322Z,7.93
2023-01-29T01:07:27.696Z,8.20
2023-01-29T01:10:11.583Z,8.10
2023-01-29T01:12:42.514Z,9.43
2023-01-29T01:15:15.151Z,7.93
2023-01-29T01:17:45.390Z,8.07
2023-01-29T01:20:18.856Z,7.53
2023-01-29T01:22:49.417Z,6.60
2023-01-29T01:25:20.343Z,9.27
2023-01-29T01:27:50.935Z,8.00
2023-01-29T01:30:21.371Z,9.13
2023-01-29T01:32:51.855Z,8.50
2023-01-29T01:35:25.089Z,7.40
2023-01-29T01:37:55.608Z,8.67
2023-01-29T01:40:28.187Z,8.87
2023-01-29T01:43:01.434Z,8.03
2023-01-29T01:45:35.984Z,7.47
2023-01-29T01:48:14.700Z,7.70
2023-01-29T01:50:53.523Z,6.97
2023-01-29T01:53:29.472Z,7.20
2023-01-29T01:56:07.743Z,8.13
2023-01-29T01:58:43.573Z,6.90
2023-01-29T02:01:14.794Z,7.00
2023-01-29T02:04:05.794Z,8.07
2023-01-29T02:06:55.053Z,7.63
2023-01-29T02:09:39.606Z,8.63
2023-01-29T02:12:14.159Z,7.87
2023-01-29T02:14:46.515Z,6.90
2023-01-29T02:17:20.989Z,7.70
2023-01-29T02:20:11.500Z,7.50
2023-01-29T02:23:22.943Z,7.20
2023-01-29T02:26:22.797Z,7.90
2023-01-29T02:29:22.539Z,7.63
2023-01-29T02:32:12.785Z,8.27
2023-01-29T02:35:10.786Z,7.00
2023-01-29T02:37:56.123Z,7.13
2023-01-29T02:40:34.569Z,7.40
2023-01-29T02:43:17.196Z,7.17
2023-01-29T02:46:01.391Z,5.93
2023-01-29T02:48:46.041Z,7.30
2023-01-29T02:52:02.967Z,7.00
2023-01-29T02:54:44.728Z,6.97
2023-01-29T02:57:25.042Z,7.30
2023-01-29T03:00:03.050Z,6.97
2023-01-29T03:02:44.649Z,8.17
2023-01-29T03:05:20.021Z,7.47
2023-01-29T03:07:59.492Z,6.63
2023-01-29T03:10:42.720Z,7.87
2023-01-29T03:13:34.052Z,6.20
2023-01-29T03:16:13.774Z,6.70
2023-01-29T03:18:58.045Z,6.50
2023-01-29T03:21:59.115Z,6.93
2023-01-29T03:24:55.214Z,7.40
2023-01-29T03:27:45.104Z,7.13
2023-01-29T03:30:33.655Z,6.40
2023-01-29T03:33:18.607Z,7.80
2023-01-29T03:36:01.074Z,7.17
2023-01-29T03:38:32.866Z,7.80
2023-01-29T03:41:14.274Z,7.30
2023-01-29T03:43:55.080Z,7.20
2023-01-29T03:46:33.622Z,7.23
2023-01-29T03:49:17.999Z,6.30
2023-01-29T03:52:01.092Z,7.17
2023-01-29T03:54:46.521Z,7.20
2023-01-29T03:57:27.462Z,6.23
2023-01-29T04:00:09.392Z,6.60
2023-01-29T04:03:09.600Z,6.43
2023-01-29T04:05:51.222Z,7.27
2023-01-29T04:08:35.765Z,7.13
2023-01-29T04:11:15.911Z,7.07
2023-01-29T04:13:48.577Z,7.50
2023-01-29T04:16:29.467Z,7.37
2023-01-29T04:19:14.591Z,7.50
2023-01-29T04:21:46.933Z,7.90
2023-01-29T04:24:20.941Z,7.60
2023-01-29T04:27:05.223Z,7.83
2023-01-29T04:29:53.796Z,7.00
2023-01-29T04:32:35.135Z,6.50
2023-01-29T04:35:24.722Z,9.27
2023-01-29T04:38:10.762Z,6.70
2023-01-29T04:40:58.408Z,7.90
2023-01-29T04:43:40.457Z,6.83
2023-01-29T04:46:20.380Z,7.23
2023-01-29T04:49:14.627Z,7.80
2023-01-29T04:51:54.450Z,6.37
2023-01-29T04:54:39.577Z,7.63
2023-01-29T04:57:25.634Z,7.40
2023-01-29T05:00:05.088Z,6.83
2023-01-29T05:02:40.689Z,7.17
2023-01-29T05:05:14.142Z,7.27
2023-01-29T05:07:46.972Z,7.47
2023-01-29T05:10:21.585Z,7.20
2023-01-29T05:13:03.223Z,6.80
2023-01-29T05:15:41.683Z,7.47
2023-01-29T05:18:12.098Z,7.33
2023-01-29T05:20:46.818Z,7.33
2023-01-29T05:23:20.509Z,5.93
2023-01-29T05:25:52.805Z,7.57
2023-01-29T05:28:23.402Z,6.97
2023-01-29T05:30:56.709Z,8.23
2023-01-29T05:33:29.545Z,5.73
2023-01-29T05:36:02.483Z,8.70
2023-01-29T05:38:32.639Z,7.10
2023-01-29T05:41:02.924Z,7.50
2023-01-29T05:43:36.009Z,8.67
2023-01-29T05:46:07.552Z,7.63
2023-01-29T05:48:37.731Z,7.10
2023-01-29T05:51:08.629Z,8.43
2023-01-29T05:53:38.776Z,7.50
2023-01-29T05:56:09.877Z,7.90
2023-01-29T05:58:42.775Z,6.57
2023-01-29T06:01:16.102Z,7.10
2023-01-29T06:03:46.891Z,6.53
2023-01-29T06:06:18.020Z,7.53
2023-01-29T06:08:48.279Z,6.53
2023-01-29T06:11:19.495Z,8.47
2023-01-29T06:13:52.505Z,7.40
2023-01-29T06:16:22.918Z,9.07
2023-01-29T06:18:53.039Z,7.93
2023-01-29T06:21:23.564Z,7.10
2023-01-29T06:23:55.843Z,7.53
2023-01-29T06:26:26.008Z,7.77
2023-01-29T06:28:58.970Z,7.60
2023-01-29T06:31:38.235Z,9.03
2023-01-29T06:34:09.208Z,7.53
2023-01-29T06:36:40.020Z,8.93
2023-01-29T06:39:10.360Z,8.70
2023-01-29T06:41:40.380Z,9.43
2023-01-29T06:44:13.082Z,8.90
2023-01-29T06:46:43.151Z,7.90
2023-01-29T06:49:13.271Z,8.70
2023-01-29T06:51:43.472Z,8.00
2023-01-29T06:54:14.173Z,8.37
2023-01-29T06:56:44.638Z,8.07
2023-01-29T06:59:17.826Z,8.67
2023-01-29T07:01:48.110Z,8.50
2023-01-29T07:04:18.539Z,9.70
2023-01-29T07:06:48.999Z,8.13
2023-01-29T07:09:19.327Z,8.70
2023-01-29T07:11:49.597Z,8.33
2023-01-29T07:14:22.536Z,9.67
2023-01-29T07:16:52.606Z,9.87
2023-01-29T07:19:23.995Z,9.10
2023-01-29T07:21:54.530Z,9.43
2023-01-29T07:24:25.015Z,9.67
2023-01-29T07:26:55.501Z,8.73
2023-01-29T07:29:28.422Z,8.77
2023-01-29T07:31:58.675Z,8.83
2023-01-29T07:34:28.986Z,8.50
2023-01-29T07:36:59.769Z,9.20
2023-01-29T07:39:29.829Z,8.60
2023-01-29T07:41:59.834Z,9.20
2023-01-29T07:44:33.978Z,8.03
2023-01-29T07:47:05.869Z,8.57
2023-01-29T07:49:36.009Z,9.10
2023-01-29T07:52:49.268Z,8.13
2023-01-29T07:55:25.728Z,8.10
2023-01-29T07:58:03.637Z,8.83
2023-01-29T08:00:39.099Z,9.70
2023-01-29T08:03:17.206Z,10.23
2023-01-29T08:05:47.818Z,9.53
2023-01-29T08:08:19.436Z,8.30
2023-01-29T08:10:49.716Z,10.30
2023-01-29T08:13:20.002Z,10.70
2023-01-29T08:15:52.843Z,8.20
2023-01-29T08:18:22.877Z,8.67
2023-01-29T08:20:53.261Z,8.03
2023-01-29T08:23:23.404Z,8.73
2023-01-29T08:25:56.372Z,8.50
2023-01-29T08:28:26.929Z,7.63
2023-01-29T08:31:00.482Z,10.30
2023-01-29T08:33:38.779Z,9.37
2023-01-29T08:36:13.882Z,8.37
2023-01-29T08:38:44.334Z,8.43
2023-01-29T08:41:15.773Z,9.40
2023-01-29T08:43:46.827Z,8.40
2023-01-29T08:46:19.669Z,8.13
2023-01-29T08:48:50.287Z,7.67
2023-01-29T08:51:20.688Z,9.50
2023-01-29T08:53:51.681Z,7.77
2023-01-29T08:56:21.799Z,9.53
2023-01-29T08:58:52.160Z,8.40
2023-01-29T09:01:25.129Z,8.60
2023-01-29T09:03:55.975Z,10.20
2023-01-29T09:06:26.375Z,8.40
2023-01-29T09:08:56.743Z,7.20
2023-01-29T09:11:27.149Z,8.67
2023-01-29T09:13:57.313Z,9.40
2023-01-29T09:16:30.168Z,7.73
2023-01-29T09:19:00.399Z,8.83
2023-01-29T09:21:30.503Z,8.10
2023-01-29T09:24:00.859Z,11.03
2023-01-29T09:26:31.223Z,9.43
2023-01-29T09:29:02.265Z,8.60
2023-01-29T09:31:35.683Z,9.20
2023-01-29T09:34:06.190Z,9.10
2023-01-29T09:36:36.490Z,8.47
2023-01-29T09:39:09.052Z,8.70
2023-01-29T09:41:56.030Z,9.77
2023-01-29T09:44:50.399Z,9.27
2023-01-29T09:47:34.373Z,9.00
2023-01-29T09:50:09.732Z,8.33
2023-01-29T09:52:48.559Z,8.87
2023-01-29T09:55:28.248Z,8.13
2023-01-29T09:58:02.617Z,8.50
2023-01-29T10:00:41.318Z,9.27
2023-01-29T10:03:38.577Z,9.60
2023-01-29T10:06:44.296Z,8.17
2023-01-29T10:10:02.238Z,7.50
2023-01-29T10:13:24.007Z,9.70
2023-01-29T10:16:20.520Z,9.57
2023-01-29T10:19:32.628Z,8.73
2023-01-29T10:22:48.849Z,10.73
2023-01-29T10:25:23.237Z,9.33
2023-01-29T10:27:58.093Z,10.53
2023-01-29T10:30:37.296Z,9.47
2023-01-29T10:33:14.247Z,10.47
2023-01-29T10:35:55.938Z,10.67
2023-01-29T10:38:43.202Z,10.30
2023-01-29T10:41:33.894Z,10.63
2023-01-29T10:44:25.881Z,10.30
2023-01-29T10:47:34.868Z,9.67
2023-01-29T10:50:32.232Z,9.97
2023-01-29T10:53:39.157Z,10.07
2023-01-29T10:56:29.691Z,10.33
2023-01-29T10:59:10.351Z,13.30
2023-01-29T11:01:40.708Z,11.07
2023-01-29T11:04:15.507Z,10.47
2023-01-29T11:06:47.797Z,10.17
2023-01-29T11:09:35.339Z,9.77
2023-01-29T11:12:16.315Z,10.70
2023-01-29T11:14:52.997Z,9.87
2023-01-29T11:17:27.670Z,9.70
2023-01-29T11:20:01.296Z,9.30
2023-01-29T11:22:34.073Z,10.43
2023-01-29T11:25:21.233Z,9.60
2023-01-29T11:27:58.245Z,9.10
2023-01-29T11:30:33.264Z,10.40
2023-01-29T11:33:15.481Z,7.17
2023-01-29T11:35:45.986Z,8.70
2023-01-29T11:38:26.244Z,8.70
2023-01-29T11:41:11.002Z,8.83
2023-01-29T11:43:41.352Z,9.70
2023-01-29T11:46:18.855Z,7.63
2023-01-29T11:48:59.247Z,7.93
2023-01-29T11:51:38.298Z,8.17
2023-01-29T11:54:09.238Z,8.30
2023-01-29T11:56:48.222Z,8.33
2023-01-29T11:59:44.412Z,10.33
2023-01-29T12:02:32.439Z,8.03
2023-01-29T12:05:09.789Z,8.80
2023-01-29T12:07:45.852Z,9.50
2023-01-29T12:10:36.578Z,8.87
2023-01-29T12:13:30.053Z,8.97
2023-01-29T12:16:22.403Z,9.47
2023-01-29T12:18:59.347Z,8.47
2023-01-29T12:21:38.881Z,7.90
2023-01-29T12:24:25.911Z,9.80
2023-01-29T12:27:08.655Z,8.80
2023-01-29T12:29:55.388Z,8.90
2023-01-29T12:32:39.192Z,9.40
2023-01-29T12:35:19.163Z,8.10
2023-01-29T12:38:01.096Z,10.80
2023-01-29T12:40:41.381Z,8.40
2023-01-29T12:43:19.786Z,9.27
2023-01-29T12:45:58.164Z,9.17
2023-01-29T12:48:35.648Z,7.43
2023-01-29T12:51:12.979Z,7.40
2023-01-29T12:53:51.265Z,7.10
2023-01-29T12:56:32.827Z,8.40
2023-01-29T12:59:13.034Z,6.20
2023-01-29T13:01:55.594Z,7.37
2023-01-29T13:04:38.146Z,7.50
2023-01-29T13:07:19.135Z,6.30
2023-01-29T13:09:54.097Z,7.17
2023-01-29T13:12:27.070Z,6.87
2023-01-29T13:15:01.860Z,6.23
2023-01-29T13:17:42.185Z,7.63
2023-01-29T13:20:22.639Z,6.50
2023-01-29T13:22:57.115Z,6.00
2023-01-29T13:25:27.481Z,6.30
2023-01-29T13:27:58.188Z,7.13
2023-01-29T13:30:34.907Z,5.60
2023-01-29T13:33:12.834Z,7.47
2023-01-29T13:35:48.819Z,6.77
2023-01-29T13:38:31.177Z,6.13
2023-01-29T13:41:08.829Z,6.47
2023-01-29T13:43:42.922Z,6.10
2023-01-29T13:46:17.800Z,6.60
2023-01-29T13:48:55.623Z,5.57
2023-01-29T13:51:34.179Z,5.80
2023-01-29T13:54:10.553Z,6.47
2023-01-29T13:56:59.401Z,5.50
2023-01-29T13:59:56.738Z,6.80
2023-01-29T14:02:30.617Z,7.43
2023-01-29T14:05:46.803Z,6.30
2023-01-29T14:08:44.565Z,6.10
2023-01-29T14:11:38.906Z,6.00
2023-01-29T14:15:07.911Z,6.93
2023-01-29T14:17:40.319Z,8.33
2023-01-29T14:20:25.715Z,6.70
2023-01-29T14:23:05.058Z,7.33
2023-01-29T14:25:41.850Z,6.07
2023-01-29T14:28:25.520Z,7.63
2023-01-29T14:30:56.463Z,6.27
2023-01-29T14:33:37.863Z,7.10
2023-01-29T14:36:14.857Z,6.60
2023-01-29T14:38:53.717Z,8.40
2023-01-29T14:41:33.393Z,8.37
2023-01-29T14:44:48.605Z,8.67
2023-01-29T14:47:23.308Z,7.60
2023-01-29T14:49:56.509Z,8.67
2023-01-29T14:52:35.750Z,7.00
2023-01-29T14:55:19.266Z,7.40
2023-01-29T14:57:51.713Z,7.90
2023-01-29T15:00:33.070Z,8.80
2023-01-29T15:03:05.729Z,7.33
2023-01-29T15:05:42.221Z,7.20
2023-01-29T15:08:30.568Z,8.37
2023-01-29T15:11:24.733Z,7.00
2023-01-29T15:14:03.971Z,5.80
2023-01-29T15:16:43.297Z,8.33
2023-01-29T15:19:23.245Z,8.27
2023-01-29T15:22:14.555Z,8.30
2023-01-29T15:24:47.200Z,7.80
2023-01-29T15:27:23.419Z,8.10
2023-01-29T15:30:02.699Z,7.10
2023-01-29T15:32:39.235Z,8.47
2023-01-29T15:35:13.638Z,7.70
2023-01-29T15:37:44.201Z,6.57
2023-01-29T15:40:20.290Z,5.10
2023-01-29T15:42:52.940Z,6.47
2023-01-29T15:45:32.465Z,7.10
2023-01-29T15:48:08.696Z,6.67
2023-01-29T15:50:44.069Z,6.33
2023-01-29T15:53:22.368Z,7.07
2023-01-29T15:55:53.828Z,7.80
2023-01-29T15:58:35.091Z,8.40
2023-01-29T16:01:06.835Z,8.30
2023-01-29T16:03:39.258Z,8.60
2023-01-29T16:06:11.314Z,8.60
2023-01-29T16:08:44.254Z,8.27
2023-01-29T16:11:14.603Z,7.40
2023-01-29T16:13:50.812Z,10.30
2023-01-29T16:16:28.027Z,9.17
2023-01-29T16:19:00.836Z,9.07
2023-01-29T16:21:37.346Z,8.50
2023-01-29T16:24:14.026Z,8.43
2023-01-29T16:26:49.197Z,9.30
2023-01-29T16:29:25.240Z,10.00
2023-01-29T16:32:01.978Z,9.23
2023-01-29T16:34:37.338Z,10.40
2023-01-29T16:37:20.388Z,9.90
2023-01-29T16:39:53.052Z,9.07
2023-01-29T16:42:28.406Z,10.30
2023-01-29T16:45:04.849Z,10.00
2023-01-29T16:47:41.547Z,8.93
2023-01-29T16:50:43.331Z,11.20
2023-01-29T16:53:27.418Z,9.67
2023-01-29T16:56:06.547Z,9.07
2023-01-29T16:58:37.719Z,7.97
2023-01-29T17:01:14.048Z,7.27
2023-01-29T17:03:44.967Z,10.17
2023-01-29T17:06:23.599Z,8.93
2023-01-29T17:08:55.466Z,10.27
2023-01-29T17:11:37.556Z,11.83
2023-01-29T17:14:11.421Z,11.77
2023-01-29T17:16:56.138Z,10.90
2023-01-29T17:19:26.554Z,10.40
2023-01-29T17:21:57.144Z,11.43
2023-01-29T17:24:27.521Z,10.00
2023-01-29T17:26:58.098Z,10.83
2023-01-29T17:29:34.277Z,13.00
2023-01-29T17:32:07.798Z,11.73
2023-01-29T17:34:37.971Z,13.30
2023-01-29T17:37:08.383Z,10.30
2023-01-29T17:39:39.707Z,10.73
2023-01-29T17:42:15.370Z,11.30
2023-01-29T17:44:46.183Z,16.07
2023-01-29T17:47:19.431Z,25.30
2023-01-29T17:49:51.118Z,35.40
2023-01-29T17:52:21.615Z,39.37
2023-01-29T17:54:52.155Z,37.73
2023-01-29T17:57:22.523Z,33.30
2023-01-29T17:59:52.975Z,31.00
2023-01-29T18:02:29.793Z,30.20
2023-01-29T18:05:00.604Z,26.20
2023-01-29T18:07:30.997Z,28.67
2023-01-29T18:10:01.400Z,25.50
2023-01-29T18:12:31.698Z,27.00
2023-01-29T18:15:01.901Z,28.33
2023-01-29T18:17:35.724Z,26.90
2023-01-29T18:20:06.777Z,26.37
2023-01-29T18:22:37.113Z,27.40
2023-01-29T18:25:08.330Z,25.07
2023-01-29T18:27:38.661Z,24.33
2023-01-29T18:30:10.952Z,25.30
2023-01-29T18:32:44.132Z,29.53
2023-01-29T18:35:14.862Z,31.60
2023-01-29T18:37:45.226Z,23.67
2023-01-29T18:40:17.428Z,25.67
2023-01-29T18:42:51.380Z,23.30
2023-01-29T18:45:21.952Z,26.57
2023-01-29T18:47:55.043Z,23.10
2023-01-29T18:50:26.488Z,25.00
2023-01-29T18:52:57.662Z,25.37
2023-01-29T18:55:34.570Z,30.00
2023-01-29T18:58:29.337Z,24.60
2023-01-29T19:00:55.634Z,23.57
2023-01-29T19:03:28.572Z,25.17
2023-01-29T19:06:05.565Z,26.17
2023-01-29T19:08:37.680Z,23.23
2023-01-29T19:11:09.484Z,24.00
2023-01-29T19:13:41.301Z,23.43
2023-01-29T19:16:14.686Z,25.30
2023-01-29T19:18:47.974Z,27.77
2023-01-29T19:21:19.383Z,26.87
2023-01-29T19:23:50.039Z,24.07
2023-01-29T19:26:21.017Z,22.27
2023-01-29T19:28:51.337Z,24.17
2023-01-29T19:31:21.553Z,26.57
2023-01-29T19:33:54.594Z,28.23
2023-01-29T19:36:24.859Z,26.20
2023-01-29T19:38:54.956Z,26.97
2023-01-29T19:41:25.592Z,19.57
2023-01-29T19:43:56.056Z,14.80
2023-01-29T19:46:27.831Z,17.57
2023-01-29T19:49:00.951Z,18.00
2023-01-29T19:51:31.018Z,24.27
2023-01-29T19:54:02.395Z,22.37
2023-01-29T19:56:33.655Z,22.70
2023-01-29T19:59:05.208Z,20.40
2023-01-29T20:01:35.919Z,21.10
2023-01-29T20:04:09.003Z,20.47
2023-01-29T20:06:39.477Z,20.13
2023-01-29T20:09:11.833Z,17.57
2023-01-29T20:11:42.073Z,19.40
2023-01-29T20:14:12.611Z,17.77
2023-01-29T20:16:43.055Z,20.00
2023-01-29T20:19:16.366Z,17.30
2023-01-29T20:21:50.983Z,18.10
2023-01-29T20:24:21.268Z,19.13
2023-01-29T20:26:51.805Z,19.10
2023-01-29T20:29:22.140Z,20.87
2023-01-29T20:31:53.757Z,20.73
2023-01-29T20:34:27.331Z,23.17
2023-01-29T20:36:57.639Z,17.93
2023-01-29T20:39:28.094Z,18.00
2023-01-29T20:41:59.055Z,17.40
2023-01-29T20:44:29.413Z,17.47
2023-01-29T20:47:01.872Z,21.20
2023-01-29T20:49:35.249Z,20.93
2023-01-29T20:52:06.990Z,19.83
2023-01-29T20:54:37.317Z,18.10
2023-01-29T20:57:07.493Z,18.93
2023-01-29T20:59:37.753Z,20.97
2023-01-29T21:02:08.119Z,20.20
2023-01-29T21:04:43.044Z,21.37
2023-01-29T21:07:14.506Z,19.83
2023-01-29T21:09:44.904Z,18.47
2023-01-29T21:12:15.367Z,17.40
2023-01-29T21:14:46.233Z,14.40
2023-01-29T21:17:16.846Z,17.00
2023-01-29T21:19:50.678Z,17.20
2023-01-29T21:22:20.853Z,22.73
2023-01-29T21:24:51.246Z,18.70
2023-01-29T21:27:21.700Z,14.97
2023-01-29T21:29:52.085Z,17.50
2023-01-29T21:32:22.389Z,16.40
2023-01-29T21:34:55.179Z,16.53
2023-01-29T21:37:25.386Z,17.73
2023-01-29T21:39:55.565Z,18.90
2023-01-29T21:42:38.162Z,19.73
2023-01-29T21:45:11.121Z,19.07
2023-01-29T21:47:41.371Z,20.03
2023-01-29T21:50:15.732Z,18.47
2023-01-29T21:52:46.239Z,16.87
2023-01-29T21:55:16.785Z,17.93
2023-01-29T21:57:47.137Z,17.13
2023-01-29T22:00:19.449Z,18.37
2023-01-29T22:02:53.173Z,18.60
2023-01-29T22:05:26.847Z,16.60
2023-01-29T22:07:57.277Z,17.07
2023-01-29T22:10:27.687Z,18.87
2023-01-29T22:12:58.116Z,16.50
2023-01-29T22:15:28.214Z,19.77
2023-01-29T22:17:58.231Z,18.70
2023-01-29T22:20:32.335Z,18.43
2023-01-29T22:23:03.062Z,16.07
2023-01-29T22:25:34.659Z,18.80
2023-01-29T22:28:04.728Z,16.77
2023-01-29T22:30:35.187Z,17.67
2023-01-29T22:33:05.279Z,17.97
2023-01-29T22:35:38.041Z,22.20
2023-01-29T22:38:08.616Z,18.33
2023-01-29T22:40:39.002Z,16.10
2023-01-29T22:43:09.226Z,15.47
2023-01-29T22:45:42.724Z,16.33
2023-01-29T22:48:12.930Z,18.70
2023-01-29T22:50:54.066Z,16.30
2023-01-29T22:53:24.079Z,16.50
2023-01-29T22:55:57.616Z,18.80
2023-01-29T22:58:27.979Z,18.33
2023-01-29T23:00:57.973Z,17.03
2023-01-29T23:03:28.630Z,14.87
2023-01-29T23:06:01.412Z,14.30
2023-01-29T23:08:31.568Z,16.47
2023-01-29T23:11:14.689Z,17.87
2023-01-29T23:13:47.361Z,14.47
2023-01-29T23:16:20.081Z,14.73
2023-01-29T23:18:54.593Z,15.60
2023-01-29T23:21:29.017Z,18.47
2023-01-29T23:24:01.501Z,18.77
2023-01-29T23:26:45.016Z,15.30
2023-01-29T23:29:15.981Z,16.30
2023-01-29T23:31:46.219Z,14.30
2023-01-29T23:34:16.570Z,15.97
2023-01-29T23:36:49.552Z,17.07
2023-01-29T23:39:20.709Z,20.93
2023-01-29T23:41:50.819Z,17.00
2023-01-29T23:44:21.097Z,17.20
2023-01-29T23:46:51.164Z,16.90
2023-01-29T23:49:21.575Z,19.13
2023-01-29T23:51:55.460Z,13.47
2023-01-29T23:54:26.100Z,14.50
2023-01-29T23:56:56.260Z,14.77
2023-01-29T23:59:29.440Z,15.60
